createdAt,value
2023-02-17T00:05:08.972Z,23.2
2023-02-17T00:10:27.222Z,23.3
2023-02-17T00:15:46.057Z,23.3
2023-02-17T00:21:04.762Z,23.3
2023-02-17T00:26:23.262Z,23.3
2023-02-17T00:31:41.664Z,23.3
2023-02-17T00:36:59.766Z,23.3
2023-02-17T00:42:17.972Z,23.3
2023-02-17T00:47:36.736Z,23.3
2023-02-17T00:52:55.286Z,23.3
2023-02-17T00:58:13.756Z,23.3
2023-02-17T01:03:32.545Z,23.3
2023-02-17T01:08:51.079Z,23.3
2023-02-17T01:14:09.566Z,23.3
2023-02-17T01:19:28.047Z,23.3
2023-02-17T01:24:46.596Z,23.3
2023-02-17T01:30:04.962Z,23.3
2023-02-17T01:35:23.507Z,23.3
2023-02-17T01:40:42.344Z,23.3
2023-02-17T01:46:01.088Z,23.2
2023-02-17T01:51:19.840Z,23.3
2023-02-17T01:56:38.070Z,23.3
2023-02-17T02:01:56.718Z,23.3
2023-02-17T02:07:14.921Z,23.3
2023-02-17T02:12:32.887Z,23.3
2023-02-17T02:17:51.351Z,23.3
2023-02-17T02:23:09.568Z,23.3
2023-02-17T02:28:28.115Z,23.3
2023-02-17T02:33:46.587Z,23.3
2023-02-17T02:39:05.346Z,23.3
2023-02-17T02:44:23.907Z,23.3
2023-02-17T02:49:41.917Z,23.3
2023-02-17T02:55:00.148Z,23.3
2023-02-17T03:00:18.369Z,23.3
2023-02-17T03:05:36.607Z,23.3
2023-02-17T03:10:54.828Z,23.3
2023-02-17T03:16:13.734Z,23.3
2023-02-17T03:21:31.952Z,23.3
2023-02-17T03:26:50.727Z,23.3
2023-02-17T03:32:09.251Z,23.3
2023-02-17T03:37:27.885Z,23.3
2023-02-17T03:42:46.108Z,23.3
2023-02-17T03:48:04.637Z,23.3
2023-02-17T03:53:23.116Z,23.3
2023-02-17T03:58:41.912Z,23.3
2023-02-17T04:04:00.588Z,23.3
2023-02-17T04:09:19.178Z,23.3
2023-02-17T04:14:37.646Z,23.3
2023-02-17T04:19:56.225Z,23.3
2023-02-17T04:25:14.411Z,23.3
2023-02-17T04:30:32.767Z,23.3
2023-02-17T04:35:51.417Z,23.4
2023-02-17T04:41:10.153Z,23.4
2023-02-17T04:46:29.194Z,23.4
2023-02-17T04:51:47.920Z,23.4
2023-02-17T04:57:05.942Z,23.3
2023-02-17T05:02:24.469Z,23.3
2023-02-17T05:07:43.010Z,23.3
2023-02-17T05:13:01.462Z,23.3
2023-02-17T05:18:19.958Z,23.3
2023-02-17T05:23:38.461Z,23.3
2023-02-17T05:28:56.951Z,23.3
2023-02-17T05:34:15.150Z,23.3
2023-02-17T05:39:33.968Z,23.3
2023-02-17T05:44:52.436Z,23.3
2023-02-17T05:50:10.924Z,23.3
2023-02-17T05:55:29.457Z,23.3
2023-02-17T06:00:47.357Z,23.3
2023-02-17T06:06:06.186Z,23.3
2023-02-17T06:11:25.155Z,23.2
2023-02-17T06:16:43.159Z,23.2
2023-02-17T06:21:46.037Z,23.2
2023-02-17T06:27:04.875Z,23.2
2023-02-17T06:32:23.645Z,23.2
2023-02-17T06:37:42.437Z,23.3
2023-02-17T06:43:01.013Z,23.3
2023-02-17T06:48:19.240Z,23.4
2023-02-17T06:53:37.728Z,23.4
2023-02-17T06:58:56.580Z,23.4
2023-02-17T07:04:15.407Z,23.5
2023-02-17T07:09:33.886Z,23.4
2023-02-17T07:14:52.800Z,23.5
2023-02-17T07:20:10.702Z,23.5
2023-02-17T07:25:28.980Z,23.5
2023-02-17T07:30:47.550Z,23.5
2023-02-17T07:36:07.158Z,23.6
2023-02-17T07:41:25.981Z,23.7
2023-02-17T07:46:44.497Z,23.7
2023-02-17T07:52:05.612Z,23.7
2023-02-17T07:57:23.904Z,23.7
2023-02-17T08:02:42.783Z,23.8
2023-02-17T08:08:01.305Z,23.9
2023-02-17T08:13:19.542Z,23.9
2023-02-17T08:18:38.493Z,23.9
2023-02-17T08:23:57.039Z,24
2023-02-17T08:29:15.312Z,24
2023-02-17T08:34:33.644Z,24.1
2023-02-17T08:39:51.922Z,24.1
2023-02-17T08:45:10.022Z,24.2
2023-02-17T08:50:27.988Z,24.2
2023-02-17T08:55:50.072Z,24.3
2023-02-17T09:01:08.294Z,24.4
2023-02-17T09:06:26.711Z,24.5
2023-02-17T09:11:44.690Z,24.5
2023-02-17T09:17:03.271Z,24.6
2023-02-17T09:22:32.622Z,24.6
2023-02-17T09:27:51.317Z,24.7
2023-02-17T09:33:09.979Z,24.7
2023-02-17T09:38:28.415Z,24.8
2023-02-17T09:43:46.649Z,24.8
2023-02-17T09:49:04.879Z,24.8
2023-02-17T09:54:23.437Z,24.8
2023-02-17T09:59:41.916Z,24.9
2023-02-17T10:05:00.622Z,24.8
2023-02-17T10:10:19.470Z,24.8
2023-02-17T10:15:37.913Z,24.8
2023-02-17T10:20:56.853Z,24.9
2023-02-17T10:26:15.511Z,24.9
2023-02-17T10:31:34.661Z,24.9
2023-02-17T10:36:53.157Z,24.9
2023-02-17T10:42:11.787Z,24.9
2023-02-17T10:47:29.976Z,24.9
2023-02-17T10:52:48.749Z,24.9
2023-02-17T10:58:07.620Z,24.9
2023-02-17T11:03:26.046Z,24.9
2023-02-17T11:08:44.605Z,24.9
2023-02-17T11:14:02.899Z,24.9
2023-02-17T11:19:21.751Z,24.9
2023-02-17T11:24:40.692Z,24.9
2023-02-17T11:29:59.338Z,24.9
2023-02-17T11:35:17.575Z,24.9
2023-02-17T11:40:36.049Z,24.8
2023-02-17T11:45:54.155Z,24.8
2023-02-17T11:51:12.700Z,24.8
2023-02-17T11:56:30.989Z,24.8
2023-02-17T12:01:49.818Z,24.8
2023-02-17T12:07:08.052Z,24.8
2023-02-17T12:12:26.520Z,24.7
2023-02-17T12:17:29.484Z,24.7
2023-02-17T12:22:47.501Z,24.7
2023-02-17T12:28:05.904Z,24.7
2023-02-17T12:33:09.087Z,24.6
2023-02-17T12:38:27.325Z,24.6
2023-02-17T12:43:51.771Z,24.6
2023-02-17T12:49:15.233Z,24.6
2023-02-17T12:54:33.422Z,24.6
2023-02-17T12:59:51.924Z,24.5
2023-02-17T13:04:54.866Z,24.5
2023-02-17T13:10:13.495Z,24.5
2023-02-17T13:15:31.915Z,24.5
2023-02-17T13:20:50.458Z,24.5
2023-02-17T13:26:09.041Z,24.4
2023-02-17T13:31:27.832Z,24.4
2023-02-17T13:36:46.274Z,24.4
2023-02-17T13:42:04.176Z,24.4
2023-02-17T13:47:22.972Z,24.4
2023-02-17T13:52:41.515Z,24.4
2023-02-17T13:57:59.988Z,24.3
2023-02-17T14:03:18.203Z,24.3
2023-02-17T14:08:36.199Z,24.3
2023-02-17T14:13:54.864Z,24.3
2023-02-17T14:19:13.722Z,24.3
2023-02-17T14:24:32.308Z,24.3
2023-02-17T14:29:50.958Z,24.3
2023-02-17T14:35:09.734Z,24.2
2023-02-17T14:40:12.944Z,24.2
2023-02-17T14:45:31.699Z,24.2
2023-02-17T14:50:49.931Z,24.2
2023-02-17T14:56:09.075Z,24.2
2023-02-17T15:01:27.818Z,24.1
2023-02-17T15:06:46.370Z,24.1
2023-02-17T15:12:04.957Z,24.1
2023-02-17T15:17:23.423Z,24.1
2023-02-17T15:22:42.259Z,24.1
2023-02-17T15:27:46.433Z,24.1
2023-02-17T15:33:04.673Z,24
2023-02-17T15:38:23.459Z,24
2023-02-17T15:43:42.040Z,24
2023-02-17T15:49:00.442Z,24
2023-02-17T15:54:19.370Z,23.9
2023-02-17T15:59:38.327Z,24
2023-02-17T16:04:57.126Z,23.9
2023-02-17T16:10:15.323Z,23.9
2023-02-17T16:15:34.120Z,23.9
2023-02-17T16:20:52.316Z,23.9
2023-02-17T16:26:11.058Z,23.9
2023-02-17T16:31:29.504Z,23.9
2023-02-17T16:36:48.015Z,23.9
2023-02-17T16:42:06.585Z,23.8
2023-02-17T16:47:09.818Z,23.8
2023-02-17T16:52:29.556Z,23.8
2023-02-17T16:57:48.036Z,23.8
2023-02-17T17:02:56.447Z,23.7
2023-02-17T17:07:59.308Z,23.7
2023-02-17T17:13:02.196Z,23.7
2023-02-17T17:18:05.409Z,23.7
2023-02-17T17:23:23.621Z,23.7
2023-02-17T17:28:42.081Z,23.7
2023-02-17T17:34:00.386Z,23.7
2023-02-17T17:39:19.368Z,23.7
2023-02-17T17:44:22.497Z,23.7
2023-02-17T17:49:40.754Z,23.7
2023-02-17T17:54:58.989Z,23.7
2023-02-17T18:00:03.142Z,23.7
2023-02-17T18:05:22.350Z,23.7
2023-02-17T18:10:41.195Z,23.7
2023-02-17T18:16:00.159Z,23.7
2023-02-17T18:21:18.860Z,23.7
2023-02-17T18:26:37.676Z,23.7
2023-02-17T18:31:56.413Z,23.7
2023-02-17T18:37:15.302Z,23.6
2023-02-17T18:42:18.148Z,23.7
2023-02-17T18:47:36.405Z,23.6
2023-02-17T18:52:55.312Z,23.6
2023-02-17T18:58:13.772Z,23.6
2023-02-17T19:03:31.894Z,23.6
2023-02-17T19:08:49.862Z,23.6
2023-02-17T19:14:08.514Z,23.6
2023-02-17T19:19:27.020Z,23.6
2023-02-17T19:24:45.612Z,23.6
2023-02-17T19:30:04.042Z,23.6
2023-02-17T19:35:22.467Z,23.6
2023-02-17T19:40:40.741Z,23.6
2023-02-17T19:45:59.234Z,23.6
2023-02-17T19:51:17.499Z,23.6
2023-02-17T19:56:35.844Z,23.6
2023-02-17T20:01:54.340Z,23.5
2023-02-17T20:07:13.944Z,23.5
2023-02-17T20:12:32.544Z,23.5
2023-02-17T20:17:51.037Z,23.5
2023-02-17T20:23:10.548Z,23.5
2023-02-17T20:28:29.074Z,23.5
2023-02-17T20:33:47.742Z,23.5
2023-02-17T20:39:05.937Z,23.5
2023-02-17T20:44:28.254Z,23.5
2023-02-17T20:49:47.703Z,23.5
2023-02-17T20:55:06.913Z,23.5
2023-02-17T21:00:28.473Z,23.5
2023-02-17T21:05:47.900Z,23.5
2023-02-17T21:11:06.705Z,23.5
2023-02-17T21:16:25.597Z,23.5
2023-02-17T21:21:44.421Z,23.5
2023-02-17T21:27:03.064Z,23.5
2023-02-17T21:32:21.395Z,23.4
2023-02-17T21:37:40.133Z,23.4
2023-02-17T21:42:58.065Z,23.4
2023-02-17T21:48:16.637Z,23.4
2023-02-17T21:53:35.411Z,23.4
2023-02-17T21:58:53.686Z,23.4
2023-02-17T22:04:12.214Z,23.4
2023-02-17T22:09:30.476Z,23.4
2023-02-17T22:14:49.099Z,23.4
2023-02-17T22:20:07.911Z,23.4
2023-02-17T22:25:26.414Z,23.4
2023-02-17T22:30:44.382Z,23.4
2023-02-17T22:36:02.372Z,23.4
2023-02-17T22:41:20.836Z,23.4
2023-02-17T22:46:39.629Z,23.4
2023-02-17T22:51:57.914Z,23.4
2023-02-17T22:57:16.664Z,23.4
2023-02-17T23:02:35.219Z,23.4
2023-02-17T23:07:53.767Z,23.4
2023-02-17T23:13:12.504Z,23.4
2023-02-17T23:18:31.044Z,23.4
2023-02-17T23:23:49.836Z,23.4
2023-02-17T23:29:08.317Z,23.4
2023-02-17T23:34:26.822Z,23.4
2023-02-17T23:39:45.385Z,23.4
2023-02-17T23:45:03.602Z,23.4
2023-02-17T23:50:22.102Z,23.4
2023-02-17T23:55:40.036Z,23.3
